createdAt,value
2018-05-23T04:01:45.253Z,12.60
2018-05-23T04:04:25.974Z,14.43
2018-05-23T04:07:05.830Z,18.43
2018-05-23T04:09:34.926Z,15.83
2018-05-23T04:12:03.858Z,13.73
2018-05-23T04:14:33.689Z,14.77
2018-05-23T04:17:04.748Z,14.50
2018-05-23T04:19:33.528Z,18.33
2018-05-23T04:22:02.414Z,17.20
2018-05-23T04:24:31.283Z,20.07
2018-05-23T04:27:01.228Z,19.20
2018-05-23T04:29:30.012Z,19.90
2018-05-23T04:31:58.783Z,17.27
2018-05-23T04:34:28.629Z,15.73
2018-05-23T04:36:57.477Z,17.70
2018-05-23T04:39:27.365Z,16.50
2018-05-23T04:41:56.321Z,19.60
2018-05-23T04:44:24.833Z,16.97
2018-05-23T04:46:53.914Z,17.97
2018-05-23T04:49:22.744Z,16.23
2018-05-23T04:51:51.283Z,18.77
2018-05-23T04:54:20.494Z,20.40
2018-05-23T04:56:49.322Z,16.43
2018-05-23T04:59:18.171Z,13.90
2018-05-23T05:01:47.033Z,21.43
2018-05-23T05:04:15.572Z,14.43
2018-05-23T05:06:44.156Z,17.33
2018-05-23T05:09:13.379Z,19.20
2018-05-23T05:11:42.453Z,17.70
2018-05-23T05:14:11.296Z,17.60
2018-05-23T05:16:40.170Z,16.53
2018-05-23T05:19:10.023Z,17.60
2018-05-23T05:21:38.880Z,18.90
2018-05-23T05:24:07.737Z,21.10
2018-05-23T05:26:36.568Z,20.60
2018-05-23T05:29:04.772Z,18.30
2018-05-23T05:31:33.525Z,21.10
2018-05-23T05:34:02.259Z,18.83
2018-05-23T05:36:31.097Z,13.53
2018-05-23T05:39:00.830Z,14.67
2018-05-23T05:41:29.299Z,14.50
2018-05-23T05:43:58.614Z,15.23
2018-05-23T05:46:27.418Z,13.90
2018-05-23T05:48:56.208Z,14.27
2018-05-23T05:51:25.355Z,14.07
2018-05-23T05:53:54.166Z,12.47
2018-05-23T05:56:23.790Z,12.80
2018-05-23T05:58:52.631Z,15.27
2018-05-23T06:01:21.488Z,14.30
2018-05-23T06:03:50.343Z,11.50
2018-05-23T06:06:20.196Z,11.70
2018-05-23T06:08:49.072Z,13.40
2018-05-23T06:11:18.401Z,13.20
2018-05-23T06:13:47.055Z,13.63
2018-05-23T06:16:15.593Z,11.90
2018-05-23T06:18:44.299Z,11.97
2018-05-23T06:21:13.584Z,13.03
2018-05-23T06:23:42.364Z,11.37
2018-05-23T06:26:10.927Z,10.43
2018-05-23T06:28:40.443Z,11.17
2018-05-23T06:31:08.938Z,11.30
2018-05-23T06:33:37.678Z,10.50
2018-05-23T06:36:06.468Z,10.70
2018-05-23T06:38:35.211Z,9.77
2018-05-23T06:41:03.913Z,13.33
2018-05-23T06:43:32.709Z,10.60
2018-05-23T06:46:01.355Z,10.43
2018-05-23T06:48:29.849Z,9.83
2018-05-23T06:50:58.597Z,7.10
2018-05-23T06:53:27.602Z,10.33
2018-05-23T06:55:56.373Z,10.37
2018-05-23T06:58:24.897Z,8.67
2018-05-23T07:00:53.432Z,8.37
2018-05-23T07:03:22.941Z,9.93
2018-05-23T07:05:52.605Z,7.87
2018-05-23T07:08:21.449Z,8.17
2018-05-23T07:10:49.676Z,7.57
2018-05-23T07:13:18.369Z,6.07
2018-05-23T07:15:47.185Z,8.00
2018-05-23T07:18:16.757Z,8.27
2018-05-23T07:20:45.607Z,6.67
2018-05-23T07:23:14.468Z,6.73
2018-05-23T07:25:43.305Z,9.67
2018-05-23T07:28:12.145Z,8.20
2018-05-23T07:30:42.024Z,9.47
2018-05-23T07:33:11.584Z,6.90
2018-05-23T07:35:41.001Z,7.07
2018-05-23T07:38:09.764Z,6.77
2018-05-23T07:40:39.424Z,7.67
2018-05-23T07:43:08.558Z,6.60
2018-05-23T07:45:37.289Z,6.50
2018-05-23T07:48:05.978Z,6.20
2018-05-23T07:50:35.927Z,5.50
2018-05-23T07:53:05.291Z,8.13
2018-05-23T07:55:34.801Z,5.90
2018-05-23T07:58:03.517Z,5.80
2018-05-23T08:00:32.496Z,6.20
2018-05-23T08:03:01.257Z,4.57
2018-05-23T08:05:30.507Z,7.60
2018-05-23T08:07:59.767Z,5.60
2018-05-23T08:10:28.629Z,4.60
2018-05-23T08:12:57.921Z,4.03
2018-05-23T08:15:27.598Z,6.20
2018-05-23T08:17:56.340Z,6.57
2018-05-23T08:20:26.020Z,6.83
2018-05-23T08:22:55.876Z,3.63
2018-05-23T08:25:25.108Z,6.23
2018-05-23T08:27:54.526Z,4.30
2018-05-23T08:30:23.433Z,6.13
2018-05-23T08:32:53.175Z,4.80
2018-05-23T08:35:22.001Z,4.10
2018-05-23T08:37:51.005Z,3.70
2018-05-23T08:40:19.837Z,4.83
2018-05-23T08:42:49.704Z,3.27
2018-05-23T08:45:18.278Z,4.43
2018-05-23T08:47:48.188Z,6.77
2018-05-23T08:50:17.250Z,4.30
2018-05-23T08:52:46.954Z,4.40
2018-05-23T08:55:15.939Z,3.80
2018-05-23T08:57:45.376Z,5.47
2018-05-23T09:00:13.925Z,3.97
2018-05-23T09:02:46.323Z,4.30
2018-05-23T09:05:15.649Z,3.83
2018-05-23T09:07:44.549Z,4.47
2018-05-23T09:10:13.335Z,5.00
2018-05-23T09:12:42.143Z,6.17
2018-05-23T09:15:10.899Z,7.27
2018-05-23T09:17:39.775Z,4.00
2018-05-23T09:20:08.737Z,5.90
2018-05-23T09:22:37.514Z,4.20
2018-05-23T09:25:06.318Z,5.83
2018-05-23T09:27:35.282Z,4.53
2018-05-23T09:30:03.859Z,4.00
2018-05-23T09:32:32.702Z,6.53
2018-05-23T09:35:01.620Z,5.50
2018-05-23T09:37:31.420Z,4.30
2018-05-23T09:40:00.368Z,5.63
2018-05-23T09:42:29.810Z,4.87
2018-05-23T09:44:58.980Z,5.00
2018-05-23T09:47:28.432Z,7.47
2018-05-23T09:49:58.723Z,4.53
2018-05-23T09:52:28.469Z,5.37
2018-05-23T09:54:57.430Z,4.70
2018-05-23T09:57:27.181Z,4.50
2018-05-23T09:59:56.443Z,4.87
2018-05-23T10:02:25.186Z,9.83
2018-05-23T10:04:54.078Z,7.23
2018-05-23T10:07:22.822Z,7.47
2018-05-23T10:09:51.938Z,4.10
2018-05-23T10:12:21.476Z,4.10
2018-05-23T10:14:50.329Z,5.83
2018-05-23T10:17:19.139Z,4.90
2018-05-23T10:19:48.990Z,3.70
2018-05-23T10:22:17.849Z,9.00
2018-05-23T10:24:46.693Z,7.60
2018-05-23T10:27:15.685Z,5.80
2018-05-23T10:29:44.431Z,4.60
2018-05-23T10:32:13.248Z,4.57
2018-05-23T10:34:42.100Z,6.20
2018-05-23T10:37:11.970Z,7.40
2018-05-23T10:39:40.835Z,5.90
2018-05-23T10:42:09.678Z,8.43
2018-05-23T10:44:38.516Z,6.57
2018-05-23T10:47:07.065Z,7.67
2018-05-23T10:49:36.511Z,10.03
2018-05-23T10:52:05.268Z,7.10
2018-05-23T10:54:35.543Z,6.70
2018-05-23T10:57:04.107Z,6.53
2018-05-23T10:59:32.920Z,6.53
2018-05-23T11:02:01.736Z,7.87
2018-05-23T11:04:31.364Z,9.47
2018-05-23T11:07:01.256Z,6.27
2018-05-23T11:09:30.079Z,9.27
2018-05-23T11:11:58.785Z,5.37
2018-05-23T11:14:27.777Z,8.00
2018-05-23T11:16:56.293Z,8.43
2018-05-23T11:19:25.455Z,7.37
2018-05-23T11:21:54.305Z,6.10
2018-05-23T11:24:23.228Z,5.30
2018-05-23T11:26:54.365Z,4.90
2018-05-23T11:29:22.848Z,5.47
2018-05-23T11:31:51.352Z,6.73
2018-05-23T11:34:19.899Z,6.23
2018-05-23T11:36:49.509Z,6.90
2018-05-23T11:39:19.460Z,12.30
2018-05-23T11:41:47.965Z,7.03
2018-05-23T11:44:17.013Z,8.03
2018-05-23T11:46:46.858Z,5.37
2018-05-23T11:49:15.400Z,5.70
2018-05-23T11:51:44.666Z,7.30
2018-05-23T11:54:13.551Z,7.10
2018-05-23T11:56:42.043Z,5.00
2018-05-23T11:59:11.122Z,5.70
2018-05-23T12:01:39.621Z,9.23
2018-05-23T12:04:08.096Z,11.80
2018-05-23T12:06:36.849Z,7.00
2018-05-23T12:09:05.540Z,5.17
2018-05-23T12:11:34.392Z,6.53
2018-05-23T12:14:02.913Z,6.30
2018-05-23T12:16:31.428Z,10.63
2018-05-23T12:18:59.924Z,11.07
2018-05-23T12:21:28.473Z,7.30
2018-05-23T12:23:57.232Z,9.73
2018-05-23T12:26:26.728Z,6.03
2018-05-23T12:28:55.495Z,7.50
2018-05-23T12:31:24.009Z,7.27
2018-05-23T12:33:52.489Z,6.87
2018-05-23T12:36:21.908Z,9.13
2018-05-23T12:38:51.172Z,5.80
2018-05-23T12:41:19.695Z,7.70
2018-05-23T12:43:48.186Z,5.57
2018-05-23T12:46:16.715Z,9.20
2018-05-23T12:48:45.424Z,7.90
2018-05-23T12:51:14.953Z,10.80
2018-05-23T12:53:43.474Z,8.27
2018-05-23T12:56:11.993Z,8.50
2018-05-23T12:58:40.642Z,6.43
2018-05-23T13:01:09.079Z,10.17
2018-05-23T13:03:37.623Z,7.70
2018-05-23T13:06:05.801Z,9.53
2018-05-23T13:08:34.476Z,7.13
2018-05-23T13:11:03.001Z,8.77
2018-05-23T13:13:32.489Z,5.43
2018-05-23T13:16:01.005Z,5.13
2018-05-23T13:18:29.544Z,5.17
2018-05-23T13:20:58.779Z,6.40
2018-05-23T13:23:28.834Z,6.13
2018-05-23T13:25:57.532Z,6.77
2018-05-23T13:28:26.079Z,5.83
2018-05-23T13:30:54.571Z,9.40
2018-05-23T13:33:23.065Z,5.60
2018-05-23T13:35:52.270Z,4.77
2018-05-23T13:38:20.839Z,5.87
2018-05-23T13:40:49.377Z,4.67
2018-05-23T13:43:18.162Z,5.20
2018-05-23T13:45:46.671Z,7.83
2018-05-23T13:48:15.960Z,4.10
2018-05-23T13:50:44.653Z,4.40
2018-05-23T13:53:13.980Z,5.00
2018-05-23T13:55:42.773Z,5.40
2018-05-23T13:58:11.584Z,5.30
2018-05-23T14:00:40.424Z,4.87
2018-05-23T14:03:10.225Z,8.03
2018-05-23T14:05:39.067Z,6.70
2018-05-23T14:08:07.591Z,5.53
2018-05-23T14:10:36.061Z,12.80
2018-05-23T14:13:04.525Z,4.40
2018-05-23T14:15:33.236Z,4.20
2018-05-23T14:18:01.762Z,4.13
2018-05-23T14:20:30.399Z,8.60
2018-05-23T14:22:58.951Z,7.47
2018-05-23T14:25:27.448Z,10.07
2018-05-23T14:27:56.011Z,7.43
2018-05-23T14:30:24.742Z,6.07
2018-05-23T14:32:53.239Z,8.43
2018-05-23T14:35:21.957Z,3.90
2018-05-23T14:37:50.405Z,4.90
2018-05-23T14:40:19.084Z,5.63
2018-05-23T14:42:47.602Z,5.33
2018-05-23T14:45:16.847Z,5.07
2018-05-23T14:47:45.401Z,5.27
2018-05-23T14:50:14.273Z,5.17
2018-05-23T14:52:43.547Z,3.90
2018-05-23T14:55:12.213Z,4.67
2018-05-23T14:57:40.672Z,6.50
2018-05-23T15:00:09.178Z,8.40
2018-05-23T15:02:37.880Z,7.33
2018-05-23T15:05:06.388Z,7.23
2018-05-23T15:07:36.120Z,6.30
2018-05-23T15:10:05.224Z,5.60
2018-05-23T15:12:33.677Z,4.63
2018-05-23T15:15:02.928Z,8.73
2018-05-23T15:17:31.436Z,9.97
2018-05-23T15:19:59.772Z,5.53
2018-05-23T15:22:28.331Z,7.03
2018-05-23T15:24:56.876Z,4.73
2018-05-23T15:27:25.371Z,5.20
2018-05-23T15:29:53.941Z,7.97
2018-05-23T15:32:22.638Z,4.70
2018-05-23T15:34:51.112Z,5.23
2018-05-23T15:37:19.604Z,5.77
2018-05-23T15:39:48.136Z,5.30
2018-05-23T15:42:17.391Z,6.43
2018-05-23T15:44:45.867Z,9.67
2018-05-23T15:47:14.407Z,5.77
2018-05-23T15:49:43.846Z,11.70
2018-05-23T15:52:13.003Z,11.53
2018-05-23T15:54:41.510Z,6.40
2018-05-23T15:57:10.032Z,6.03
2018-05-23T15:59:38.712Z,9.73
2018-05-23T16:02:07.204Z,9.17
2018-05-23T16:04:35.748Z,8.23
2018-05-23T16:07:03.951Z,8.07
2018-05-23T16:09:32.432Z,9.03
2018-05-23T16:12:00.923Z,8.93
2018-05-23T16:14:29.467Z,10.57
2018-05-23T16:16:58.003Z,10.13
2018-05-23T16:19:26.495Z,5.33
2018-05-23T16:21:55.779Z,11.70
2018-05-23T16:24:24.293Z,9.90
2018-05-23T16:26:52.785Z,9.23
2018-05-23T16:29:21.338Z,5.40
2018-05-23T16:31:49.899Z,6.63
2018-05-23T16:34:18.600Z,8.07
2018-05-23T16:36:47.143Z,10.43
2018-05-23T16:39:15.605Z,12.47
2018-05-23T16:41:44.111Z,7.57
2018-05-23T16:44:12.596Z,6.90
2018-05-23T16:46:40.942Z,8.60
2018-05-23T16:49:10.169Z,8.93
2018-05-23T16:51:39.367Z,8.90
2018-05-23T16:54:07.911Z,8.17
2018-05-23T16:56:37.232Z,6.30
2018-05-23T16:59:06.458Z,5.97
2018-05-23T17:01:34.965Z,8.33
2018-05-23T17:04:03.706Z,8.23
2018-05-23T17:06:32.250Z,7.37
2018-05-23T17:09:01.083Z,7.50
2018-05-23T17:11:30.032Z,8.63
2018-05-23T17:13:58.700Z,7.33
2018-05-23T17:16:27.161Z,10.40
2018-05-23T17:18:55.693Z,8.47
2018-05-23T17:21:24.844Z,8.30
2018-05-23T17:23:53.310Z,12.57
2018-05-23T17:26:21.927Z,7.80
2018-05-23T17:28:50.396Z,6.73
2018-05-23T17:31:18.911Z,17.83
2018-05-23T17:33:47.463Z,7.87
2018-05-23T17:36:16.387Z,14.27
2018-05-23T17:38:45.169Z,11.80
2018-05-23T17:41:13.995Z,11.10
2018-05-23T17:43:43.813Z,6.33
2018-05-23T17:46:12.732Z,11.57
2018-05-23T17:48:41.496Z,7.87
2018-05-23T17:51:11.326Z,9.37
2018-05-23T17:53:39.871Z,5.83
2018-05-23T17:56:09.281Z,8.60
2018-05-23T17:58:37.825Z,11.77
2018-05-23T18:01:06.338Z,10.53
2018-05-23T18:03:34.892Z,7.70
2018-05-23T18:06:03.622Z,7.97
2018-05-23T18:08:32.368Z,7.30
2018-05-23T18:11:01.153Z,12.10
2018-05-23T18:13:29.952Z,9.77
2018-05-23T18:15:58.764Z,9.80
2018-05-23T18:18:27.520Z,8.63
2018-05-23T18:20:56.313Z,9.97
2018-05-23T18:23:25.080Z,13.67
2018-05-23T18:25:54.875Z,11.47
2018-05-23T18:28:24.839Z,10.90
2018-05-23T18:30:53.711Z,9.77
2018-05-23T18:33:22.484Z,15.90
2018-05-23T18:35:51.294Z,12.53
2018-05-23T18:38:20.136Z,10.50
2018-05-23T18:40:48.959Z,8.83
2018-05-23T18:43:17.775Z,10.47
2018-05-23T18:45:46.637Z,8.90
2018-05-23T18:48:16.348Z,9.17
2018-05-23T18:50:46.215Z,9.70
2018-05-23T18:53:15.170Z,11.30
2018-05-23T18:55:44.079Z,11.03
2018-05-23T18:58:12.836Z,10.80
2018-05-23T19:00:42.508Z,10.10
2018-05-23T19:03:11.348Z,14.33
2018-05-23T19:05:40.319Z,10.00
2018-05-23T19:08:09.146Z,11.43
2018-05-23T19:10:38.854Z,17.93
2018-05-23T19:13:08.684Z,9.70
2018-05-23T19:15:37.506Z,9.10
2018-05-23T19:18:06.368Z,10.37
2018-05-23T19:20:35.243Z,9.13
2018-05-23T19:23:03.992Z,8.57
2018-05-23T19:25:33.860Z,7.70
2018-05-23T19:28:02.770Z,9.87
2018-05-23T19:30:32.523Z,8.57
2018-05-23T19:33:02.448Z,11.03
2018-05-23T19:35:31.259Z,9.17
2018-05-23T19:38:00.031Z,11.77
2018-05-23T19:40:29.356Z,10.00
2018-05-23T19:42:57.967Z,13.17
2018-05-23T19:45:26.779Z,8.73
2018-05-23T19:47:55.558Z,11.47
2018-05-23T19:50:24.420Z,11.93
2018-05-23T19:52:52.958Z,8.03
2018-05-23T19:55:22.092Z,19.40
2018-05-23T19:57:50.962Z,9.83
2018-05-23T20:00:19.790Z,13.57
2018-05-23T20:02:49.149Z,12.30
2018-05-23T20:05:18.172Z,10.80
2018-05-23T20:07:46.719Z,17.90
2018-05-23T20:10:16.117Z,15.47
2018-05-23T20:12:45.679Z,11.57
2018-05-23T20:15:14.504Z,12.30
2018-05-23T20:17:43.349Z,12.00
2018-05-23T20:20:12.204Z,11.20
2018-05-23T20:22:42.024Z,11.50
2018-05-23T20:25:11.879Z,11.03
2018-05-23T20:27:40.999Z,13.33
2018-05-23T20:30:10.145Z,16.73
2018-05-23T20:32:38.661Z,10.27
2018-05-23T20:35:08.108Z,10.83
2018-05-23T20:37:38.048Z,10.80
2018-05-23T20:40:06.860Z,15.23
2018-05-23T20:42:36.314Z,12.83
2018-05-23T20:45:05.905Z,12.77
2018-05-23T20:47:34.672Z,12.07
2018-05-23T20:50:03.189Z,13.43
2018-05-23T20:52:32.700Z,12.47
2018-05-23T20:55:01.933Z,15.20
2018-05-23T20:57:30.720Z,12.57
2018-05-23T21:00:00.034Z,15.23
2018-05-23T21:02:28.692Z,15.53
2018-05-23T21:04:58.271Z,15.90
2018-05-23T21:07:27.314Z,12.70
2018-05-23T21:09:56.088Z,13.37
2018-05-23T21:12:24.907Z,14.93
2018-05-23T21:14:53.774Z,14.10
2018-05-23T21:17:23.580Z,11.47
2018-05-23T21:19:53.277Z,12.77
2018-05-23T21:22:22.268Z,15.90
2018-05-23T21:24:51.014Z,15.17
2018-05-23T21:27:19.831Z,33.17
2018-05-23T21:29:48.688Z,19.27
2018-05-23T21:32:17.424Z,14.93
2018-05-23T21:34:46.352Z,12.63
2018-05-23T21:37:15.117Z,17.77
2018-05-23T21:39:44.835Z,14.40
2018-05-23T21:42:13.701Z,13.37
2018-05-23T21:44:42.516Z,13.50
2018-05-23T21:47:11.355Z,17.27
2018-05-23T21:49:40.350Z,14.00
2018-05-23T21:52:09.955Z,12.23
2018-05-23T21:54:38.820Z,12.93
2018-05-23T21:57:07.632Z,12.33
2018-05-23T21:59:36.474Z,26.80
